Time;durP1;ratioP1;P1;durP2;ratioP2;P2;SDS_P1;SDS_P2;PMS_P1;PMS_P2;Temp;Humidity;BMP_temperature;BMP_pressure;BME280_temperature;BME280_humidity;BME280_pressure;Samples;Min_cycle;Max_cycle;Signal;HPM_P1;HPM_P2
2021/12/23 00:02:20;;;;;;;19.77;10.57;;;-0.90;99.90;;;;;;5030434;28;20223;-70
2021/12/23 00:04:46;;;;;;;16.23;8.83;;;-0.90;99.90;;;;;;5008526;28;20244;-68
2021/12/23 00:07:11;;;;;;;24.27;10.17;;;-0.90;99.90;;;;;;4993921;28;20291;-70
2021/12/23 00:12:16;;;;;;;11.93;8.43;;;-0.90;99.90;;;;;;5027834;28;20246;-70
2021/12/23 00:14:42;;;;;;;17.63;9.53;;;-0.90;99.90;;;;;;5025304;28;20978;-70
2021/12/23 00:17:21;;;;;;;16.60;8.70;;;-0.90;99.90;;;;;;5010410;28;20466;-69
2021/12/23 00:25:19;;;;;;;19.27;9.57;;;-1.10;99.90;;;;;;5030265;28;20479;-70
2021/12/23 00:27:45;;;;;;;18.70;9.60;;;-1.10;99.90;;;;;;5008026;28;20437;-70
2021/12/23 00:30:11;;;;;;;17.23;9.00;;;-1.00;99.90;;;;;;5010189;28;20463;-70
2021/12/23 00:32:37;;;;;;;19.23;8.93;;;-1.10;99.90;;;;;;5008027;28;20217;-70
2021/12/23 00:35:07;;;;;;;12.70;7.70;;;-1.10;99.90;;;;;;5009607;28;20216;-69
2021/12/23 00:37:38;;;;;;;13.00;8.37;;;-1.10;99.90;;;;;;5007736;28;20455;-69
2021/12/23 00:40:07;;;;;;;15.40;7.50;;;-1.10;99.90;;;;;;5026392;28;20474;-70
2021/12/23 00:42:34;;;;;;;13.10;7.00;;;-1.10;99.90;;;;;;5008366;28;20509;-69
2021/12/23 00:45:00;;;;;;;16.40;8.27;;;-1.10;99.90;;;;;;5009621;28;20468;-70
2021/12/23 00:47:25;;;;;;;18.67;8.93;;;-1.10;99.90;;;;;;5007901;28;20536;-71
2021/12/23 00:49:51;;;;;;;16.70;8.70;;;-1.10;99.90;;;;;;5026186;28;20220;-70
2021/12/23 00:52:23;;;;;;;12.47;7.20;;;-1.10;99.90;;;;;;5025939;28;20459;-70
2021/12/23 00:54:49;;;;;;;13.77;8.30;;;-1.10;99.90;;;;;;5024032;28;20217;-69
2021/12/23 00:57:15;;;;;;;13.50;8.23;;;-1.10;99.90;;;;;;5027964;28;20466;-70
2021/12/23 00:59:41;;;;;;;15.53;9.00;;;-1.10;99.90;;;;;;5024009;28;20699;-70
2021/12/23 01:02:09;;;;;;;13.00;8.03;;;-1.10;99.90;;;;;;5028865;28;20306;-70
2021/12/23 01:04:35;;;;;;;13.40;8.33;;;-1.10;99.90;;;;;;5026631;28;20297;-70
2021/12/23 01:07:00;;;;;;;18.40;7.97;;;-1.10;99.90;;;;;;5022833;28;20989;-69
2021/12/23 01:09:26;;;;;;;17.17;9.57;;;-1.10;99.90;;;;;;5007463;28;20244;-70
2021/12/23 01:11:53;;;;;;;22.03;8.43;;;-1.10;99.90;;;;;;5027015;28;20303;-69
2021/12/23 01:19:25;;;;;;;18.20;8.80;;;-1.10;99.90;;;;;;5009305;28;20311;-70
2021/12/23 01:21:51;;;;;;;15.70;10.13;;;-1.20;99.90;;;;;;5026380;28;20519;-68
2021/12/23 01:24:17;;;;;;;13.27;8.27;;;-1.10;99.90;;;;;;5017735;28;20495;-70
2021/12/23 01:26:43;;;;;;;18.70;7.87;;;-1.20;99.90;;;;;;5026376;28;20447;-69
2021/12/23 01:29:09;;;;;;;17.53;8.83;;;-1.20;99.90;;;;;;5028547;28;20834;-70
2021/12/23 01:31:39;;;;;;;17.90;8.37;;;-1.20;99.90;;;;;;5007164;28;20585;-70
2021/12/23 01:34:06;;;;;;;13.97;8.90;;;-1.10;99.90;;;;;;5025974;28;20463;-71
2021/12/23 01:36:31;;;;;;;19.77;10.30;;;-1.20;99.90;;;;;;5007696;28;20464;-70
2021/12/23 01:38:57;;;;;;;19.57;9.23;;;-1.20;99.90;;;;;;5008509;28;20466;-71
2021/12/23 01:41:25;;;;;;;14.50;8.90;;;-1.10;99.90;;;;;;5009278;28;20217;-70
2021/12/23 01:43:52;;;;;;;18.17;9.70;;;-1.20;99.90;;;;;;5009313;28;20251;-71
2021/12/23 01:46:19;;;;;;;19.80;8.80;;;-1.20;99.90;;;;;;5025893;28;20467;-71
2021/12/23 01:48:45;;;;;;;20.47;9.30;;;-1.10;99.90;;;;;;5025088;28;20467;-68
2021/12/23 01:51:11;;;;;;;16.17;8.87;;;-1.10;99.90;;;;;;5026661;28;20463;-71
2021/12/23 01:53:37;;;;;;;21.37;9.60;;;-1.20;99.90;;;;;;5007281;28;20470;-70
2021/12/23 01:56:03;;;;;;;15.83;9.27;;;-1.20;99.90;;;;;;5001184;28;20846;-70
2021/12/23 01:58:28;;;;;;;20.80;10.57;;;-1.20;99.90;;;;;;5007512;28;20847;-71
2021/12/23 02:00:54;;;;;;;12.63;8.33;;;-1.20;99.90;;;;;;5008954;28;20459;-70
2021/12/23 02:03:20;;;;;;;19.83;10.07;;;-1.20;99.90;;;;;;5008612;28;20217;-70
2021/12/23 02:05:47;;;;;;;12.23;7.83;;;-1.20;99.90;;;;;;5021023;28;20278;-70
2021/12/23 02:08:13;;;;;;;14.40;7.57;;;-1.20;99.90;;;;;;5025761;28;20550;-71
2021/12/23 02:10:40;;;;;;;15.30;8.40;;;-1.20;99.90;;;;;;5007355;28;20554;-71
2021/12/23 02:13:06;;;;;;;16.60;8.97;;;-1.20;99.90;;;;;;5009185;28;20459;-70
2021/12/23 02:15:32;;;;;;;21.43;9.20;;;-1.20;99.90;;;;;;5024873;28;20521;-69
2021/12/23 02:17:57;;;;;;;16.20;9.30;;;-1.20;99.90;;;;;;5011829;28;20546;-71
2021/12/23 02:20:28;;;;;;;15.53;8.80;;;-1.10;99.90;;;;;;5029504;28;20458;-68
2021/12/23 02:22:54;;;;;;;16.73;9.90;;;-1.10;99.90;;;;;;5028776;28;20241;-70
2021/12/23 02:25:19;;;;;;;23.03;9.00;;;-1.10;99.90;;;;;;5012119;28;20549;-71
2021/12/23 02:27:46;;;;;;;15.30;8.07;;;-1.10;99.90;;;;;;5010779;28;21155;-69
2021/12/23 02:30:18;;;;;;;21.10;9.07;;;-1.10;99.90;;;;;;5028903;28;20596;-71
2021/12/23 02:32:45;;;;;;;19.50;9.90;;;-1.10;99.90;;;;;;5009999;28;20463;-70
2021/12/23 02:35:14;;;;;;;14.40;9.33;;;-1.10;99.90;;;;;;5028582;28;20564;-70
2021/12/23 02:37:41;;;;;;;18.73;10.27;;;-1.10;99.90;;;;;;5011089;28;20470;-70
2021/12/23 02:40:08;;;;;;;20.07;10.60;;;-1.20;99.90;;;;;;5030536;28;20467;-69
2021/12/23 02:42:34;;;;;;;21.33;9.23;;;-1.10;99.90;;;;;;5009566;28;20463;-71
2021/12/23 02:45:01;;;;;;;14.70;9.53;;;-1.10;99.90;;;;;;5012286;28;20537;-70
2021/12/23 02:47:27;;;;;;;15.90;8.60;;;-1.20;99.90;;;;;;5027309;28;20220;-70
2021/12/23 02:49:53;;;;;;;16.97;8.57;;;-1.10;99.90;;;;;;5029110;28;20459;-70
2021/12/23 02:52:18;;;;;;;15.87;10.30;;;-1.10;99.90;;;;;;5030053;28;20221;-71
2021/12/23 02:54:54;;;;;;;25.33;10.73;;;-1.10;99.90;;;;;;5010246;28;20232;-69
2021/12/23 02:57:19;;;;;;;12.33;8.37;;;-1.10;99.90;;;;;;5012513;28;20645;-70
2021/12/23 02:59:45;;;;;;;19.33;9.30;;;-1.10;99.90;;;;;;5010343;28;20451;-70
2021/12/23 03:02:11;;;;;;;17.70;9.77;;;-1.10;99.90;;;;;;5028044;28;20730;-70
2021/12/23 03:04:36;;;;;;;15.87;9.67;;;-1.10;99.90;;;;;;5010075;28;20224;-69
2021/12/23 03:07:02;;;;;;;23.20;11.40;;;-1.20;99.90;;;;;;5026580;28;20216;-70
2021/12/23 03:09:28;;;;;;;20.50;10.20;;;-1.20;99.90;;;;;;4988048;28;20275;-71
2021/12/23 03:11:54;;;;;;;15.40;9.40;;;-1.10;99.90;;;;;;5027914;28;20227;-70
2021/12/23 03:14:20;;;;;;;18.47;8.90;;;-1.10;99.90;;;;;;5011592;28;20260;-69
2021/12/23 03:16:46;;;;;;;17.77;9.10;;;-1.10;99.90;;;;;;5009105;28;20479;-70
2021/12/23 03:19:12;;;;;;;16.80;8.90;;;-1.10;99.90;;;;;;5032078;28;20715;-70
2021/12/23 03:21:38;;;;;;;14.30;8.73;;;-1.10;99.90;;;;;;5037492;28;20453;-70
2021/12/23 03:24:05;;;;;;;14.77;7.70;;;-1.10;99.90;;;;;;5034772;28;20225;-70
2021/12/23 03:26:30;;;;;;;20.97;10.20;;;-1.20;99.90;;;;;;5009397;28;20772;-70
2021/12/23 03:28:56;;;;;;;14.40;7.80;;;-1.20;99.90;;;;;;5027879;28;20547;-71
2021/12/23 03:31:22;;;;;;;13.57;8.73;;;-1.20;99.90;;;;;;5011797;28;20403;-70
2021/12/23 03:33:47;;;;;;;17.43;9.00;;;-1.20;99.90;;;;;;5009558;28;20228;-71
2021/12/23 03:36:13;;;;;;;19.43;9.23;;;-1.20;99.90;;;;;;5011557;28;20227;-70
2021/12/23 03:38:39;;;;;;;14.00;8.63;;;-1.20;99.90;;;;;;5027142;28;20224;-70
2021/12/23 03:41:04;;;;;;;18.20;10.47;;;-1.20;99.90;;;;;;5011690;28;20224;-71
2021/12/23 03:43:31;;;;;;;17.77;9.17;;;-1.20;99.90;;;;;;5009894;28;20221;-71
2021/12/23 03:45:57;;;;;;;19.93;9.50;;;-1.20;99.90;;;;;;5027791;28;20221;-70
2021/12/23 03:48:23;;;;;;;16.93;10.63;;;-1.20;99.90;;;;;;5024539;28;20456;-71
2021/12/23 03:50:49;;;;;;;19.70;10.17;;;-1.20;99.90;;;;;;5009534;28;20451;-68
2021/12/23 03:53:16;;;;;;;16.37;9.30;;;-1.20;99.90;;;;;;5028925;28;20451;-71
2021/12/23 03:55:42;;;;;;;15.00;7.67;;;-1.20;99.90;;;;;;5026240;28;20494;-69
2021/12/23 03:58:08;;;;;;;23.03;9.70;;;-1.20;99.90;;;;;;5028822;28;21029;-70
2021/12/23 04:00:34;;;;;;;18.47;9.57;;;-1.20;99.90;;;;;;5009235;28;20450;-71
2021/12/23 04:02:59;;;;;;;20.20;9.50;;;-1.20;99.90;;;;;;5010952;28;20696;-71
2021/12/23 04:05:25;;;;;;;19.73;9.10;;;-1.20;99.90;;;;;;5010783;28;20529;-71
2021/12/23 04:07:51;;;;;;;15.17;9.07;;;-1.20;99.90;;;;;;5009935;28;20228;-71
2021/12/23 04:10:21;;;;;;;15.70;9.17;;;-1.20;99.90;;;;;;5013786;28;20295;-71
2021/12/23 04:12:47;;;;;;;15.10;8.40;;;-1.20;99.90;;;;;;5026179;28;20216;-71
2021/12/23 04:15:14;;;;;;;16.10;9.43;;;-1.20;99.90;;;;;;5010771;28;20483;-71
2021/12/23 04:17:40;;;;;;;16.10;9.27;;;-1.20;99.90;;;;;;5008989;28;20513;-71
2021/12/23 04:20:32;;;;;;;17.63;9.90;;;-1.20;99.90;;;;;;5017243;28;20463;-70
2021/12/23 04:22:56;;;;;;;16.23;9.53;;;-1.20;99.90;;;;;;5014872;28;20465;-70
2021/12/23 04:25:25;;;;;;;20.93;10.00;;;-1.20;99.90;;;;;;5022199;28;20478;-70
2021/12/23 04:27:54;;;;;;;15.47;9.70;;;-1.20;99.90;;;;;;5021607;28;20459;-71
2021/12/23 04:30:21;;;;;;;13.00;8.10;;;-1.20;99.90;;;;;;4994541;28;20517;-71
2021/12/23 04:32:47;;;;;;;16.60;9.67;;;-1.20;99.90;;;;;;5008428;28;20462;-71
2021/12/23 04:35:13;;;;;;;11.67;7.80;;;-1.20;99.90;;;;;;5010701;28;20463;-71
2021/12/23 04:37:39;;;;;;;16.83;8.03;;;-1.20;99.90;;;;;;5026248;28;20580;-71
2021/12/23 04:40:08;;;;;;;17.40;9.10;;;-1.20;99.90;;;;;;5010180;28;20460;-70
2021/12/23 04:42:36;;;;;;;17.53;9.67;;;-1.20;99.90;;;;;;5007308;28;20506;-71
2021/12/23 04:45:02;;;;;;;20.10;9.30;;;-1.20;99.90;;;;;;5003325;28;20495;-71
2021/12/23 04:47:28;;;;;;;16.80;8.97;;;-1.20;99.90;;;;;;5023531;28;20498;-71
2021/12/23 04:49:54;;;;;;;18.90;11.10;;;-1.20;99.90;;;;;;5010352;28;20506;-70
2021/12/23 04:52:19;;;;;;;16.63;9.17;;;-1.20;99.90;;;;;;5009474;28;20227;-70
2021/12/23 04:54:45;;;;;;;18.97;9.87;;;-1.20;99.90;;;;;;5025443;28;20229;-68
2021/12/23 04:57:11;;;;;;;17.40;8.63;;;-1.20;99.90;;;;;;5010215;28;20772;-70
2021/12/23 04:59:36;;;;;;;19.27;9.67;;;-1.20;99.90;;;;;;5007967;28;20257;-71
2021/12/23 05:02:02;;;;;;;13.07;8.20;;;-1.20;99.90;;;;;;5009546;28;20224;-70
2021/12/23 05:04:28;;;;;;;22.63;9.87;;;-1.20;99.90;;;;;;5024273;28;20225;-70
2021/12/23 05:06:53;;;;;;;18.63;9.90;;;-1.20;99.90;;;;;;5026588;28;20548;-71
2021/12/23 05:09:19;;;;;;;28.73;10.10;;;-1.20;99.90;;;;;;5026083;28;20208;-70
2021/12/23 05:11:45;;;;;;;14.57;9.20;;;-1.20;99.90;;;;;;5023526;28;20251;-70
2021/12/23 05:14:11;;;;;;;21.80;9.60;;;-1.20;99.90;;;;;;5017649;28;20685;-71
2021/12/23 05:16:37;;;;;;;18.87;10.47;;;-1.20;99.90;;;;;;5007651;28;20227;-70
2021/12/23 05:19:03;;;;;;;17.77;9.17;;;-1.20;99.90;;;;;;5026386;28;20606;-70
2021/12/23 05:21:29;;;;;;;18.30;9.30;;;-1.20;99.90;;;;;;5012497;28;21043;-70
2021/12/23 05:23:55;;;;;;;18.50;8.43;;;-1.20;99.90;;;;;;5011047;28;20502;-71
2021/12/23 05:26:21;;;;;;;20.33;10.33;;;-1.20;99.90;;;;;;5028949;28;20469;-71
2021/12/23 05:28:46;;;;;;;22.63;10.50;;;-1.20;99.90;;;;;;4990752;28;20315;-68
2021/12/23 05:31:12;;;;;;;23.33;11.10;;;-1.20;99.90;;;;;;4992405;28;20523;-70
2021/12/23 05:33:38;;;;;;;26.17;10.70;;;-1.20;99.90;;;;;;5006786;28;20224;-70
2021/12/23 05:36:04;;;;;;;21.00;10.57;;;-1.20;99.90;;;;;;5026925;28;20212;-71
2021/12/23 05:38:29;;;;;;;20.07;8.57;;;-1.20;99.90;;;;;;5012007;28;20212;-71
2021/12/23 05:40:55;;;;;;;21.03;10.10;;;-1.20;99.90;;;;;;5012700;28;20243;-71
2021/12/23 05:43:21;;;;;;;28.80;12.00;;;-1.20;99.90;;;;;;5028625;28;20239;-71
2021/12/23 05:45:46;;;;;;;19.13;9.40;;;-1.30;99.90;;;;;;5011900;28;20236;-70
2021/12/23 05:48:12;;;;;;;20.13;10.23;;;-1.30;99.90;;;;;;5012953;28;20247;-71
2021/12/23 05:50:38;;;;;;;23.73;9.70;;;-1.30;99.90;;;;;;5012391;28;20224;-70
2021/12/23 05:53:04;;;;;;;30.47;10.57;;;-1.30;99.90;;;;;;5018038;28;20224;-70
2021/12/23 05:55:29;;;;;;;19.97;9.20;;;-1.30;99.90;;;;;;5035105;28;20240;-71
2021/12/23 05:57:55;;;;;;;17.27;10.50;;;-1.30;99.90;;;;;;5037041;28;20462;-70
2021/12/23 06:00:27;;;;;;;22.67;10.60;;;-1.30;99.90;;;;;;5053193;28;20350;-70
2021/12/23 06:02:54;;;;;;;22.60;10.40;;;-1.30;99.90;;;;;;4999149;28;20232;-67
2021/12/23 06:05:20;;;;;;;20.87;11.27;;;-1.30;99.90;;;;;;4999769;28;20471;-70
2021/12/23 06:07:46;;;;;;;21.07;11.20;;;-1.30;99.90;;;;;;5002178;28;20521;-69
2021/12/23 06:10:14;;;;;;;30.03;10.47;;;-1.30;99.90;;;;;;5025752;28;20513;-71
2021/12/23 06:12:40;;;;;;;20.50;8.47;;;-1.30;99.90;;;;;;5035559;28;20447;-70
2021/12/23 06:15:06;;;;;;;16.03;8.43;;;-1.30;99.90;;;;;;5036086;28;20475;-71
2021/12/23 06:17:32;;;;;;;15.60;8.93;;;-1.30;99.90;;;;;;5018452;28;20450;-71
2021/12/23 06:19:59;;;;;;;21.37;10.10;;;-1.30;99.90;;;;;;5018926;28;20484;-70
2021/12/23 06:22:24;;;;;;;18.27;9.80;;;-1.30;99.90;;;;;;5035297;28;20919;-70
2021/12/23 06:24:50;;;;;;;21.80;9.37;;;-1.30;99.90;;;;;;5036912;28;20452;-71
2021/12/23 06:27:18;;;;;;;23.00;10.83;;;-1.30;99.90;;;;;;5038751;28;21009;-70
2021/12/23 06:29:44;;;;;;;30.23;11.67;;;-1.30;99.90;;;;;;5038314;28;20256;-71
2021/12/23 06:32:10;;;;;;;25.83;9.23;;;-1.30;99.90;;;;;;5018274;28;20474;-71
2021/12/23 06:34:36;;;;;;;14.13;9.00;;;-1.30;99.90;;;;;;5034817;28;20451;-71
2021/12/23 06:37:04;;;;;;;18.97;10.23;;;-1.30;99.90;;;;;;5018701;28;20973;-71
2021/12/23 06:39:34;;;;;;;25.87;10.47;;;-1.30;99.90;;;;;;5018120;28;20208;-70
2021/12/23 06:42:00;;;;;;;23.77;10.80;;;-1.30;99.90;;;;;;5018366;28;20439;-70
2021/12/23 06:44:26;;;;;;;26.67;10.80;;;-1.30;99.90;;;;;;5018135;28;20550;-71
2021/12/23 06:46:52;;;;;;;20.77;9.17;;;-1.30;99.90;;;;;;5018486;28;20607;-70
2021/12/23 06:49:18;;;;;;;20.37;10.40;;;-1.40;99.90;;;;;;5018905;28;20530;-70
2021/12/23 06:51:44;;;;;;;24.70;10.20;;;-1.40;99.90;;;;;;5018144;28;20219;-71
2021/12/23 06:54:13;;;;;;;20.00;8.90;;;-1.50;99.90;;;;;;5018296;28;20726;-70
2021/12/23 06:56:39;;;;;;;19.50;8.37;;;-1.50;99.90;;;;;;5017806;28;20835;-71
2021/12/23 06:59:05;;;;;;;20.33;9.97;;;-1.50;99.90;;;;;;5018831;28;20467;-70
2021/12/23 07:01:30;;;;;;;17.70;8.57;;;-1.50;99.90;;;;;;5018224;28;20224;-71
2021/12/23 07:04:06;;;;;;;23.00;11.37;;;-1.40;99.90;;;;;;5015656;28;20283;-70
2021/12/23 07:06:35;;;;;;;27.60;10.13;;;-1.40;99.90;;;;;;5014542;28;20219;-71
2021/12/23 07:09:03;;;;;;;18.93;8.93;;;-1.40;99.90;;;;;;5030068;28;20451;-70
2021/12/23 07:11:29;;;;;;;19.10;9.80;;;-1.40;99.90;;;;;;5008758;28;20466;-71
2021/12/23 07:13:54;;;;;;;23.63;8.80;;;-1.30;99.90;;;;;;5011863;28;20500;-70
2021/12/23 07:16:20;;;;;;;20.57;9.70;;;-1.30;99.90;;;;;;5011761;28;20524;-71
2021/12/23 07:18:46;;;;;;;23.23;10.47;;;-1.30;99.90;;;;;;5010208;28;20291;-70
2021/12/23 07:21:11;;;;;;;25.20;10.87;;;-1.30;99.90;;;;;;5010910;28;20220;-71
2021/12/23 07:23:37;;;;;;;18.87;9.47;;;-1.30;99.90;;;;;;5027009;28;20220;-70
2021/12/23 07:26:03;;;;;;;19.10;9.40;;;-1.30;99.90;;;;;;5025349;28;20247;-70
2021/12/23 07:28:28;;;;;;;25.53;9.50;;;-1.30;99.90;;;;;;5046049;28;20208;-70
2021/12/23 07:30:57;;;;;;;23.17;9.53;;;-1.30;99.90;;;;;;5015390;28;20216;-70
2021/12/23 07:33:22;;;;;;;21.17;9.23;;;-1.20;99.90;;;;;;5011269;28;20212;-70
2021/12/23 07:35:48;;;;;;;21.73;10.80;;;-1.30;99.90;;;;;;5008989;28;20538;-71
2021/12/23 07:38:17;;;;;;;20.93;9.40;;;-1.30;99.90;;;;;;5011792;28;20232;-70
2021/12/23 07:40:43;;;;;;;23.30;10.00;;;-1.30;99.90;;;;;;5009880;28;20463;-70
2021/12/23 07:43:20;;;;;;;27.43;12.00;;;-1.30;99.90;;;;;;5028189;28;20451;-70
2021/12/23 07:45:46;;;;;;;21.83;9.10;;;-1.30;99.90;;;;;;5025338;28;21769;-71
2021/12/23 07:48:12;;;;;;;25.03;10.77;;;-1.30;99.90;;;;;;5012214;28;20459;-70
2021/12/23 07:50:41;;;;;;;30.47;11.03;;;-1.30;99.90;;;;;;5009312;28;20459;-71
2021/12/23 07:53:07;;;;;;;19.37;9.30;;;-1.20;99.90;;;;;;4995045;28;20220;-71
2021/12/23 07:55:32;;;;;;;26.53;11.93;;;-1.20;99.90;;;;;;5009368;28;20467;-69
2021/12/23 07:57:58;;;;;;;26.67;10.27;;;-1.20;99.90;;;;;;5011382;28;20270;-70
2021/12/23 08:00:28;;;;;;;22.90;11.47;;;-1.20;99.90;;;;;;5028983;28;20216;-71
2021/12/23 08:02:55;;;;;;;20.30;9.50;;;-1.20;99.90;;;;;;5028616;28;20223;-68
2021/12/23 08:05:21;;;;;;;19.57;9.23;;;-1.20;99.90;;;;;;5010255;28;20621;-71
2021/12/23 08:07:46;;;;;;;20.17;8.97;;;-1.20;99.90;;;;;;5026968;28;20619;-70
2021/12/23 08:10:12;;;;;;;24.93;10.73;;;-1.20;99.90;;;;;;5035476;28;20212;-70
2021/12/23 08:12:38;;;;;;;17.00;9.10;;;-1.20;99.90;;;;;;5015568;28;20220;-71
2021/12/23 08:15:04;;;;;;;22.97;9.23;;;-1.20;99.90;;;;;;5010411;28;20229;-71
2021/12/23 08:17:30;;;;;;;22.70;9.50;;;-1.10;99.90;;;;;;5025571;28;20303;-71
2021/12/23 08:19:55;;;;;;;26.23;11.23;;;-1.10;99.90;;;;;;5010764;28;20546;-70
2021/12/23 08:22:22;;;;;;;16.10;9.30;;;-1.10;99.90;;;;;;5009892;28;20252;-71
2021/12/23 08:24:48;;;;;;;25.73;11.70;;;-1.20;99.90;;;;;;5012271;28;20642;-70
2021/12/23 08:27:13;;;;;;;20.57;9.73;;;-1.20;99.90;;;;;;5048604;28;20545;-71
2021/12/23 08:29:39;;;;;;;22.50;10.80;;;-1.20;99.90;;;;;;5021781;28;20221;-70
2021/12/23 08:32:05;;;;;;;19.40;9.80;;;-1.20;99.90;;;;;;5010209;28;20263;-71
2021/12/23 08:34:34;;;;;;;18.20;9.17;;;-1.20;99.90;;;;;;5008952;28;20305;-68
2021/12/23 08:37:01;;;;;;;22.53;12.87;;;-1.10;99.90;;;;;;5010550;28;20479;-71
2021/12/23 08:39:26;;;;;;;25.77;11.13;;;-1.10;99.90;;;;;;5013268;28;20463;-70
2021/12/23 08:41:52;;;;;;;22.93;10.40;;;-1.10;99.90;;;;;;5027935;28;20462;-68
2021/12/23 08:44:18;;;;;;;18.97;10.20;;;-1.10;99.90;;;;;;5027740;28;20220;-71
2021/12/23 08:46:43;;;;;;;23.43;11.63;;;-1.10;99.90;;;;;;5008226;28;20220;-68
2021/12/23 08:49:09;;;;;;;27.13;11.43;;;-1.10;99.90;;;;;;5010618;28;20216;-70
2021/12/23 08:51:36;;;;;;;19.33;9.73;;;-1.10;99.90;;;;;;5007918;28;20287;-71
2021/12/23 08:54:03;;;;;;;21.37;9.77;;;-1.10;99.90;;;;;;5025769;28;20700;-71
2021/12/23 08:56:29;;;;;;;23.40;10.50;;;-1.10;99.90;;;;;;5007774;28;20513;-71
2021/12/23 08:58:55;;;;;;;25.43;11.50;;;-1.00;99.90;;;;;;5010298;28;20467;-71
2021/12/23 09:01:21;;;;;;;22.27;10.57;;;-1.00;99.90;;;;;;5009218;28;20223;-71
2021/12/23 09:03:47;;;;;;;17.70;10.10;;;-1.00;99.90;;;;;;4999448;28;20666;-71
2021/12/23 09:06:13;;;;;;;23.27;10.90;;;-1.00;99.90;;;;;;5027035;28;20531;-71
2021/12/23 09:08:38;;;;;;;24.67;12.03;;;-1.00;99.90;;;;;;5023402;28;20223;-71
2021/12/23 09:11:04;;;;;;;20.07;10.50;;;-1.00;99.90;;;;;;5023509;28;20212;-71
2021/12/23 09:13:30;;;;;;;21.03;10.30;;;-1.00;99.90;;;;;;5007930;28;20303;-70
2021/12/23 09:15:56;;;;;;;21.70;11.83;;;-0.90;99.90;;;;;;5026839;28;20228;-71
2021/12/23 09:18:23;;;;;;;23.00;11.73;;;-0.90;99.90;;;;;;5014842;28;20472;-71
2021/12/23 09:20:49;;;;;;;26.40;11.47;;;-0.90;99.90;;;;;;5007382;28;20578;-71
2021/12/23 09:23:15;;;;;;;32.50;13.30;;;-0.90;99.90;;;;;;5029449;28;20513;-71
2021/12/23 09:25:41;;;;;;;22.60;10.70;;;-0.90;99.90;;;;;;5009337;28;20471;-71
2021/12/23 09:33:37;;;;;;;15.73;9.20;;;-0.80;99.90;;;;;;5023655;28;20466;-71
2021/12/23 09:36:03;;;;;;;27.80;12.90;;;-0.80;99.90;;;;;;5009249;28;20499;-71
2021/12/23 09:38:29;;;;;;;26.77;13.20;;;-0.80;99.90;;;;;;5023658;28;20463;-72
2021/12/23 09:41:04;;;;;;;26.23;12.37;;;-0.80;99.90;;;;;;5009642;28;20485;-71
2021/12/23 09:43:32;;;;;;;20.37;10.87;;;-0.80;99.90;;;;;;5025336;28;20215;-71
2021/12/23 09:45:58;;;;;;;29.37;12.27;;;-0.80;99.90;;;;;;5008768;28;20529;-71
2021/12/23 09:48:27;;;;;;;30.67;13.63;;;-0.80;99.90;;;;;;5012667;28;20517;-71
2021/12/23 09:50:54;;;;;;;29.10;12.70;;;-0.80;99.90;;;;;;4973217;28;20463;-70
2021/12/23 09:53:22;;;;;;;26.40;13.20;;;-0.80;99.90;;;;;;4993194;28;20467;-71
2021/12/23 09:55:49;;;;;;;24.40;14.57;;;-0.70;99.90;;;;;;4995974;28;20472;-70
2021/12/23 09:58:16;;;;;;;24.90;12.50;;;-0.70;99.90;;;;;;5009174;28;20988;-71
2021/12/23 10:00:45;;;;;;;24.90;11.73;;;-0.70;99.90;;;;;;5006515;28;20463;-70
2021/12/23 10:03:17;;;;;;;22.37;9.93;;;-0.70;99.90;;;;;;5026943;28;20471;-71
2021/12/23 10:05:43;;;;;;;29.63;11.87;;;-0.70;99.90;;;;;;5005844;28;20533;-68
2021/12/23 10:08:11;;;;;;;23.70;10.50;;;-0.70;99.90;;;;;;5026708;28;20463;-70
2021/12/23 10:11:05;;;;;;;22.93;11.30;;;-0.70;99.90;;;;;;5016300;28;20322;-70
2021/12/23 10:33:10;;;;;;;26.03;11.80;;;-0.50;99.90;;;;;;5034876;28;20505;-71
2021/12/23 10:38:37;;;;;;;16.63;9.67;;;-0.50;99.90;;;;;;5027103;28;20458;-70
2021/12/23 10:41:10;;;;;;;25.90;11.90;;;-0.50;99.90;;;;;;5011948;28;20450;-70
2021/12/23 10:43:46;;;;;;;21.57;10.80;;;-0.50;99.90;;;;;;5011014;28;20455;-70
2021/12/23 10:46:15;;;;;;;21.57;10.23;;;-0.50;99.90;;;;;;5011172;28;20458;-71
2021/12/23 10:51:57;;;;;;;27.70;10.27;;;-0.40;99.90;;;;;;5026269;28;20546;-70
2021/12/23 11:00:16;;;;;;;19.53;11.10;;;-0.30;99.90;;;;;;5024508;28;20513;-70
2021/12/23 11:03:09;;;;;;;24.43;13.73;;;-0.30;99.90;;;;;;5026245;28;20487;-71
2021/12/23 11:05:44;;;;;;;23.60;12.50;;;-0.30;99.90;;;;;;4983855;28;20471;-71
2021/12/23 11:38:12;;;;;;;21.37;10.47;;;-0.10;99.90;;;;;;5011640;28;20458;-72
2021/12/23 11:43:28;;;;;;;27.80;12.33;;;-0.10;99.90;;;;;;5028877;28;20455;-72
2021/12/23 11:45:54;;;;;;;25.37;12.10;;;0.00;99.90;;;;;;5010889;28;21003;-72
2021/12/23 11:48:21;;;;;;;21.97;11.40;;;0.00;99.90;;;;;;5011212;28;20474;-72
2021/12/23 11:50:54;;;;;;;27.83;12.20;;;0.00;99.90;;;;;;5000446;28;20467;-72
2021/12/23 11:53:24;;;;;;;22.80;11.20;;;0.10;99.90;;;;;;5027232;28;20466;-72
2021/12/23 11:55:51;;;;;;;28.27;11.87;;;0.10;99.90;;;;;;5024440;28;20990;-72
2021/12/23 11:58:23;;;;;;;34.80;12.83;;;0.10;99.90;;;;;;5026667;28;20455;-72
2021/12/23 12:01:02;;;;;;;23.00;12.20;;;0.10;99.90;;;;;;5005781;28;20460;-72
2021/12/23 12:03:28;;;;;;;21.33;11.53;;;0.10;99.90;;;;;;4973721;28;20456;-72
2021/12/23 12:06:17;;;;;;;25.07;11.57;;;0.10;99.90;;;;;;5013276;28;20467;-72
2021/12/23 12:08:43;;;;;;;22.30;11.73;;;0.10;99.90;;;;;;5009244;28;20224;-72
2021/12/23 12:11:35;;;;;;;30.90;14.30;;;0.10;99.90;;;;;;5010414;28;20473;-70
2021/12/23 12:14:00;;;;;;;29.23;11.93;;;0.20;99.90;;;;;;5016978;28;20475;-72
2021/12/23 12:16:31;;;;;;;26.20;11.90;;;0.20;99.90;;;;;;5027704;28;20793;-72
2021/12/23 12:18:58;;;;;;;34.77;12.50;;;0.20;99.90;;;;;;5026936;28;20224;-72
2021/12/23 12:21:28;;;;;;;23.63;11.63;;;0.20;99.90;;;;;;5010272;28;20452;-72
2021/12/23 12:24:14;;;;;;;30.73;12.33;;;0.20;99.90;;;;;;4998334;28;20488;-71
2021/12/23 12:26:58;;;;;;;27.20;11.60;;;0.20;99.90;;;;;;5008716;28;20463;-72
2021/12/23 12:29:31;;;;;;;34.67;12.80;;;0.30;99.90;;;;;;5007319;28;20468;-72
2021/12/23 12:31:57;;;;;;;26.50;11.73;;;0.30;99.90;;;;;;5006716;28;20452;-72
2021/12/23 12:34:31;;;;;;;38.00;14.17;;;0.30;99.90;;;;;;5022898;28;20478;-72
2021/12/23 12:36:58;;;;;;;30.77;12.90;;;0.30;99.90;;;;;;5026029;28;20383;-72
2021/12/23 12:39:30;;;;;;;29.23;14.73;;;0.30;99.90;;;;;;5010203;28;20506;-72
2021/12/23 12:42:02;;;;;;;31.77;14.23;;;0.30;99.90;;;;;;5009874;28;20500;-71
2021/12/23 12:44:45;;;;;;;27.57;12.90;;;0.40;99.90;;;;;;5007683;28;20471;-72
2021/12/23 12:47:22;;;;;;;27.63;11.20;;;0.30;99.90;;;;;;5010117;28;20463;-72
2021/12/23 12:49:51;;;;;;;22.23;10.83;;;0.40;99.90;;;;;;5008166;28;21168;-73
2021/12/23 12:52:22;;;;;;;32.73;13.90;;;0.40;99.90;;;;;;5009346;28;21060;-72
2021/12/23 12:54:49;;;;;;;34.90;14.40;;;0.40;99.90;;;;;;5015594;28;20474;-72
2021/12/23 12:57:18;;;;;;;39.33;12.83;;;0.40;99.90;;;;;;4991142;28;20541;-72
2021/12/23 12:59:46;;;;;;;36.53;14.07;;;0.40;99.90;;;;;;4988155;28;21029;-72
2021/12/23 13:02:30;;;;;;;33.90;14.37;;;0.40;99.90;;;;;;5004704;28;20466;-72
2021/12/23 13:05:00;;;;;;;34.73;14.37;;;0.50;99.90;;;;;;5024879;28;20472;-72
2021/12/23 13:07:48;;;;;;;21.23;11.30;;;0.50;99.90;;;;;;5013877;28;20460;-70
2021/12/23 13:10:35;;;;;;;28.60;12.00;;;0.50;99.90;;;;;;4998528;28;20509;-72
2021/12/23 13:13:34;;;;;;;30.27;13.07;;;0.50;99.90;;;;;;5024865;28;20517;-73
2021/12/23 13:16:11;;;;;;;30.10;13.20;;;0.50;99.90;;;;;;5026117;28;20477;-72
2021/12/23 13:18:37;;;;;;;26.07;11.90;;;0.60;99.90;;;;;;5006956;28;20549;-72
2021/12/23 13:21:05;;;;;;;23.20;11.20;;;0.60;99.90;;;;;;5026970;28;20542;-73
2021/12/23 13:23:40;;;;;;;25.40;11.57;;;0.60;99.90;;;;;;4996752;28;20459;-72
2021/12/23 13:26:12;;;;;;;24.53;11.60;;;0.60;99.90;;;;;;4991888;28;20479;-70
2021/12/23 13:28:43;;;;;;;24.60;11.57;;;0.60;99.90;;;;;;5021671;28;20463;-72
2021/12/23 13:31:16;;;;;;;26.03;13.13;;;0.60;99.90;;;;;;5024433;28;20554;-71
2021/12/23 13:33:45;;;;;;;28.60;13.37;;;0.70;99.90;;;;;;5002044;28;20451;-70
2021/12/23 13:36:13;;;;;;;30.27;14.37;;;0.70;99.90;;;;;;5029159;28;20465;-70
2021/12/23 13:38:41;;;;;;;36.07;13.30;;;0.70;99.90;;;;;;5016587;28;20505;-72
2021/12/23 13:41:15;;;;;;;35.03;13.60;;;0.70;99.90;;;;;;5008030;28;20538;-71
2021/12/23 13:43:41;;;;;;;33.90;14.77;;;0.70;99.90;;;;;;5016398;28;21789;-73
2021/12/23 13:46:08;;;;;;;33.10;12.90;;;0.70;99.90;;;;;;5023960;28;20474;-71
2021/12/23 13:48:51;;;;;;;32.83;13.73;;;0.80;99.90;;;;;;5019780;28;20225;-73
2021/12/23 13:51:19;;;;;;;27.10;13.50;;;0.80;99.90;;;;;;4998456;28;20551;-71
2021/12/23 13:53:45;;;;;;;31.13;12.10;;;0.80;99.90;;;;;;5022158;28;20463;-72
2021/12/23 13:56:15;;;;;;;28.20;12.10;;;0.80;99.90;;;;;;5008100;28;20828;-71
2021/12/23 13:58:41;;;;;;;40.93;13.83;;;0.80;99.90;;;;;;5013393;28;20213;-73
2021/12/23 14:01:07;;;;;;;25.60;14.77;;;0.80;99.90;;;;;;5002092;28;20554;-70